Flight Track Log - Related Links

Times and Time Zones

All times are in EST time to prevent confusion due to time zone crossing. See the SKW7363 flight status page for this flight to view local times or setup timezone preferences in your user account.

Time Position Orientation Groundspeed Altitude Reporting Facility
EST Latitude Longitude Course Direction KTS MPH feet Rate Location/Type
Thu 10:07:02 PM 40.8114 -112.0033 321° Northwest 152 175 5,000  Level Salt Lake Center
Thu 10:07:33 PM 40.8244 -112.0272 306° West 169 194 6,000 1,451 Climbing Salt Lake Center
Thu 10:08:33 PM 40.8497 -112.0894 298° West 209 241 7,200 1,082 Climbing Salt Lake Center
Thu 10:08:34 PM 40.8458 -112.0814 123° Southeast 189 217 7,100 1,161 Descending Salt Lake Center
Thu 10:09:35 PM 40.8792 -112.1467 304° West 218 251 8,400 1,463 Climbing Salt Lake Center
Thu 10:10:37 PM 40.9256 -112.1958 321° Northwest 214 246 10,100 1,597 Climbing Salt Lake Center
Thu 10:11:00 PM 40.9941 -112.2716 314° West  Level Estimated
Thu 10:11:39 PM 40.9733 -112.2431 323° Northwest 213 245 11,700  Level Salt Lake Center
Thu 10:12:00 PM 41.0526 -112.3353 321° Northwest  Level FlightAware Approximate
Thu 10:12:40 PM 41.0283 -112.3017 321° Northwest 212 244 13,400  Level Salt Lake Center
Thu 10:13:42 PM 41.0775 -112.3486 324° Northwest 217 250 14,800 1,366 Climbing Salt Lake Center
Thu 10:14:43 PM 41.1217 -112.3989 319° Northwest 208 239 16,200 1,220 Climbing Salt Lake Center
Thu 10:15:45 PM 41.1669 -112.4514 319° Northwest 215 247 17,300 919 Climbing Salt Lake Center
Thu 10:16:47 PM 41.2053 -112.5106 311° West 213 245 18,100 585 Climbing Salt Lake Center
Thu 10:17:48 PM 41.2456 -112.5728 311° West 221 254 18,500 585 Climbing Salt Lake Center
Thu 10:18:50 PM 41.2875 -112.6344 312° West 225 259 19,300 829 Climbing Salt Lake Center
Thu 10:19:51 PM 41.3275 -112.6969 310° West 222 255 20,200 878 Climbing Salt Lake Center
Thu 10:20:53 PM 41.3769 -112.7700 312° West 222 255 21,100 732 Climbing Salt Lake Center
Thu 10:21:54 PM 41.4175 -112.8314 311° West 221 254 21,700 439 Climbing Salt Lake Center
Thu 10:22:56 PM 41.4594 -112.8972 310° West 232 267 22,000 145 Climbing Salt Lake Center
Thu 10:23:58 PM 41.5036 -112.9644 311° West 240 276 22,000  Level Salt Lake Center
Thu 10:24:59 PM 41.5469 -113.0311 311° West 238 274 22,000  Level Salt Lake Center
Thu 10:26:01 PM 41.5906 -113.0992 311° West 241 277 22,000  Level Salt Lake Center
Thu 10:27:03 PM 41.6353 -113.1639 313° West 238 274 22,000  Level Salt Lake Center
Thu 10:28:04 PM 41.6789 -113.2303 311° West 239 275 22,000  Level Salt Lake Center
Thu 10:29:06 PM 41.7300 -113.3092 311° West 235 270 22,000  Level Salt Lake Center
Thu 10:30:07 PM 41.7728 -113.3753 311° West 235 270 22,000  Level Salt Lake Center
Thu 10:31:09 PM 41.8161 -113.4389 312° West 232 267 22,000  Level Salt Lake Center
Thu 10:32:11 PM 41.8581 -113.5058 310° West 234 269 22,000  Level Salt Lake Center
Thu 10:33:12 PM 41.9011 -113.5725 311° West 238 274 22,000 -49 Level Salt Lake Center
Thu 10:34:14 PM 41.9444 -113.6394 311° West 236 272 21,900 -677 Descending Salt Lake Center
Thu 10:35:16 PM 41.9897 -113.7100 311° West 246 283 20,600 -1,597 Descending Salt Lake Center
Thu 10:36:18 PM 42.0506 -113.8081 310° West 282 325 18,600 -1,463 Descending Salt Lake Center
Thu 10:37:19 PM 42.1031 -113.8894 311° West 288 331 17,600 -1,268 Descending Salt Lake Center
Thu 10:38:21 PM 42.1500 -113.9617 311° West 267 307 16,000 -1,597 Descending Salt Lake Center
Thu 10:39:23 PM 42.1981 -114.0300 314° West 255 293 14,300 -1,500 Descending Salt Lake Center
Thu 10:40:25 PM 42.2522 -114.0911 320° Northwest 253 291 12,900 -1,946 Descending Salt Lake Center
Thu 10:41:51 PM 42.3469 -114.1617 331° Northwest 140 161 9,500 -2,372 Descending Salt Lake Center

Login

Don't have an account? Register now (free) for customized features, flight alerts, and more!